Pagina principale
METAR-TAF:

METAR-TAF

Aeroporti :

Aigen im Ennstal, Austria

latitudine: 47-32N, longitudine: 014-08E, altezza: 638 m

METAR: mancante

Ora: 12:42 (10:42 UTC)

Previsione

Il bollettino è stato emesso 2 ore e 27 minuti fa, alle 08:15 UTC
Previsione valida dal 15 alle 09 UTC al 15 alle 18 UTC
Vento 3 kt da direzioni variabili
Visibilità 10 km o più
Poco nuvoloso ad un'altezza di 6000 ft
Nubi sparse ad un'altezza di 11000 ft
Nuvoloso ad un'altezza di 28000 ft
Evoluzione graduale
dal 15 alle 09 UTC al 15 alle 11 UTC
Vento 8 kt da nord-est

TAF: LOXA 150815Z 1509/1518 VRB03KT 9999 FEW060 SCT110 BKN280 BECMG 1509/1511 04008KT

Osservazioni e previsioni meteorologiche di più di 4000 aeroporti (messaggi METAR e TAF).

Le stazioni disponibili sono rappresentate dai dischi gialli e rossi sulla carta.

Puntare il mouse per vedere il nome della stazione.

Clicca sopra per visualizzare le osservazioni e previsioni meteorologiche.

Per cambiare la mappa : fare clic sui pulsanti verdi con una croce nera per ingrandire, il pulsante verde con un trattino per diminuire, o sulla freccia verde per le mappe adiacenti.


METAR-TAF: